• Join FlightAware (Why Join?)
  • Login
  • US Flag 
10:50AM EST


 

Airport Tracker/Info


-or-


 

Live Flight TrackerFlight Track Log ✈ N570R ✈ 08-Jul-2014 ✈ MYAM / MHH - KPIE

Flight Track Log - Related Links

Times and Time Zones

All times are in EDT time to prevent confusion due to time zone crossing. See the N570R flight status page for this flight to view local times or setup timezone preferences in your user account.

Time Position Orientation Groundspeed Altitude Reporting Facility
EDT Latitude Longitude Course Direction KTS MPH feet Rate Location/Type
10:02AM 26.5325 -77.8450 273° West 362 417 16,500  Level Miami Center
10:03AM 26.5375 -77.9600 273° West 367 422 17,100 900 Climbing Miami Center
10:04AM 26.5711 -78.0736 288° West 355 409 18,400 1,320 Climbing Miami Center
10:05AM 26.5953 -78.1839 284° West 361 415 19,900 1,380 Climbing Miami Center
10:06AM 26.6225 -78.2947 285° West 365 420 21,300 960 Climbing Miami Center
10:07AM 26.6481 -78.4086 284° West 373 429 22,000 300 Climbing Miami Center
10:08AM 26.6806 -78.5431 285° West 398 458 22,000  Level Miami Center
10:09AM 26.7053 -78.6678 283° West 405 466 22,000  Level Miami Center
10:10AM 26.7347 -78.7822 286° West 391 450 22,000  Level Miami Center
10:11AM 26.7606 -78.8986 284° West 389 448 22,000  Level Miami Center
10:12AM 26.7872 -79.0142 285° West 386 444 22,000  Level Miami Center
10:13AM 26.8131 -79.1292 284° West 385 443 22,000  Level Miami Center
10:14AM 26.8392 -79.2428 284° West 383 441 22,000  Level Miami Center
10:15AM 26.8669 -79.3806 283° West 383 441 22,000  Level Miami Center
10:16AM 26.8586 -79.4989 266° West 379 436 22,000  Level Miami Center
10:17AM 26.8497 -79.6183 265° West 381 438 22,000  Level Miami Center
10:18AM 26.8397 -79.7367 265° West 383 441 22,000  Level Miami Center
10:20AM 26.8542 -79.8775 287° West  Level FlightAware Approximate
10:20AM 26.8692 -79.9658 287° West 380 437 22,000  Level Miami Center
10:21AM 26.9017 -80.0800 288° West 381 438 22,000  Level Miami Center
10:22AM 26.9392 -80.2161 287° West 381 438 22,000  Level Miami Center
10:24AM 26.9711 -80.3292 288° West 381 438 22,000  Level Miami Center
10:25AM 27.0019 -80.4425 287° West 381 438 22,000  Level Miami Center
10:26AM 27.0333 -80.5556 287° West 381 438 22,000  Level Miami Center
10:27AM 27.0653 -80.6708 287° West 381 438 22,000  Level Miami Center
10:28AM 27.0956 -80.7844 287° West 381 438 22,000  Level Miami Center
10:29AM 27.1264 -80.8972 287° West 380 437 22,000  Level Miami Center
10:30AM 27.1622 -81.0319 287° West 379 436 22,000  Level Miami Center
10:31AM 27.1919 -81.1414 287° West 380 437 22,000 -60 Level Miami Center
10:32AM 27.2214 -81.2553 286° West 380 437 21,900 -600 Descending Miami Center
10:33AM 27.2522 -81.3736 286° West 391 450 20,800 -1,020 Descending Miami Center
10:34AM 27.2575 -81.5006 273° West 403 464 19,900 -900 Descending Miami Center
10:35AM 27.2667 -81.6267 275° West 410 472 19,000 -960 Descending Miami Center
10:36AM 27.3244 -81.7644 295° West 409 471 18,000 -540 Descending Miami Center
10:37AM 27.3597 -81.8661 291° West 351 404 18,000 -1,200 Level Miami Center
10:38AM 27.3950 -81.9667 292° West 340 391 15,600 -2,640 Descending Miami Center
10:39AM 27.4311 -82.0692 292° West 344 396 12,600 -2,280 Descending Miami Center
10:40AM 27.4742 -82.1628 297° West 338 389 11,000 -1,080 Descending Miami Center
10:41AM 27.5219 -82.2489 302° West 327 376 10,400 -960 Descending Miami Center
10:42AM 27.5589 -82.3331 296° West 303 349 9,100 -1,440 Descending Miami Center
10:43AM 27.5967 -82.4122 298° West 291 335 7,500 -1,980 Descending Miami Center
10:44AM 27.6333 -82.5000 295° West 285 328 5,300 -1,860 Descending Tampa TRACON
10:45AM 27.6667 -82.5833 294° West 275 316 4,000 -660 Descending Tampa TRACON
10:46AM 27.7167 -82.6333 318° Northwest 254 292 4,000  Level Tampa TRACON
10:47AM 27.7667 -82.6833 319° Northwest 251 289 4,000  Level Tampa TRACON
10:48AM 27.8167 -82.7167 329° Northwest 246 283 4,000 -60 Level Tampa TRACON
10:49AM 27.8833 -82.7500 336° Northwest 244 281 3,900 -900 Descending Tampa TRACON
10:50AM 27.9500 -82.7500 360° North 237 273 2,300 -1,140 Descending Tampa TRACON
10:51AM 27.9833 -82.7167 41° Northeast 199 229 1,700 -780 Descending Tampa TRACON
10:52AM 27.9667 -82.7000 139° Southeast 111 128 800 -780 Descending Tampa TRACON
10:53AM 27.9333 -82.7000 180° South 108 124 200 -600 Descending Tampa TRACON
10:55AM 27.9100 -82.6875 North  Level Estimated
11:02AM 27.9100 -82.6875 North  Level Estimated